Time;durP1;ratioP1;P1;durP2;ratioP2;P2;SDS_P1;SDS_P2;PMS_P1;PMS_P2;Temp;Humidity;BMP_temperature;BMP_pressure;BME280_temperature;BME280_humidity;BME280_pressure;Samples;Min_cycle;Max_cycle;Signal;HPM_P1;HPM_P2
2022/08/29 00:00:08;;;;;;;1.30;1.20;;;22.30;49.90;;;;;;5049710;28;20439;-70
2022/08/29 00:02:34;;;;;;;1.30;1.20;;;22.20;51.10;;;;;;5044337;28;20435;-70
2022/08/29 00:04:59;;;;;;;1.30;1.10;;;22.10;51.30;;;;;;5050847;28;20516;-71
2022/08/29 00:07:25;;;;;;;1.30;1.20;;;22.00;52.00;;;;;;5050526;28;20705;-71
2022/08/29 00:09:51;;;;;;;1.30;1.17;;;21.90;52.20;;;;;;5050677;28;20639;-71
2022/08/29 00:12:16;;;;;;;1.30;1.20;;;21.90;52.30;;;;;;5052874;28;20703;-70
2022/08/29 00:14:42;;;;;;;1.30;1.20;;;23.60;53.20;;;;;;5052102;28;20238;-71
2022/08/29 00:17:08;;;;;;;1.30;1.20;;;22.30;49.30;;;;;;5048588;28;20208;-70
2022/08/29 00:19:34;;;;;;;1.30;1.20;;;22.40;49.50;;;;;;5054489;28;20187;-70
2022/08/29 00:21:59;;;;;;;1.30;1.20;;;22.10;50.60;;;;;;5053252;28;20551;-72
2022/08/29 00:24:26;;;;;;;1.30;1.20;;;21.90;50.80;;;;;;5052655;28;20454;-70
2022/08/29 00:26:51;;;;;;;1.30;1.20;;;21.80;51.60;;;;;;5043247;28;20213;-72
2022/08/29 00:29:17;;;;;;;1.30;1.20;;;21.70;51.80;;;;;;5053255;28;20457;-70
2022/08/29 00:31:43;;;;;;;1.30;1.13;;;21.90;51.00;;;;;;5052443;28;20569;-70
2022/08/29 00:34:09;;;;;;;1.30;1.10;;;21.90;50.90;;;;;;5054039;28;20204;-70
2022/08/29 00:36:35;;;;;;;1.30;1.10;;;21.80;51.30;;;;;;5047043;28;20534;-70
2022/08/29 00:39:01;;;;;;;1.27;1.10;;;21.80;51.50;;;;;;5055464;28;20219;-70
2022/08/29 00:41:27;;;;;;;1.30;1.13;;;21.60;52.60;;;;;;5040445;28;20181;-70
2022/08/29 00:43:53;;;;;;;1.30;1.20;;;21.70;53.30;;;;;;5053938;28;20470;-70
2022/08/29 00:46:30;;;;;;;1.30;1.10;;;21.60;52.70;;;;;;5042739;28;20296;-70
2022/08/29 00:49:01;;;;;;;1.30;1.10;;;21.60;53.00;;;;;;5046035;28;20183;-70
2022/08/29 00:51:27;;;;;;;1.30;1.20;;;21.60;52.70;;;;;;5049973;28;20595;-70
2022/08/29 00:53:58;;;;;;;1.30;1.20;;;21.60;52.60;;;;;;5056608;28;20513;-71
2022/08/29 00:56:25;;;;;;;1.30;1.10;;;21.60;52.40;;;;;;5053970;28;20452;-70
2022/08/29 00:58:54;;;;;;;1.30;1.10;;;21.50;52.70;;;;;;5047592;28;20426;-72
2022/08/29 01:01:21;;;;;;;1.30;1.10;;;21.50;53.10;;;;;;5046987;28;20425;-70
2022/08/29 01:03:47;;;;;;;1.30;1.10;;;21.40;53.10;;;;;;5048003;28;20441;-70
2022/08/29 01:06:13;;;;;;;1.30;1.20;;;21.40;52.90;;;;;;5053834;28;20434;-70
2022/08/29 01:08:39;;;;;;;1.30;1.10;;;21.30;53.30;;;;;;5042720;28;20418;-70
2022/08/29 01:13:53;;;;;;;1.30;1.10;;;21.30;55.10;;;;;;5056582;28;20428;-70
2022/08/29 01:16:20;;;;;;;1.30;1.10;;;21.20;55.60;;;;;;5054271;28;20530;-71
2022/08/29 01:18:49;;;;;;;1.30;1.10;;;21.30;55.30;;;;;;5059476;28;20410;-70
2022/08/29 01:21:18;;;;;;;1.30;1.00;;;21.30;53.40;;;;;;5047699;28;20426;-70
2022/08/29 01:24:10;;;;;;;1.30;1.10;;;21.30;52.50;;;;;;5050905;28;20433;-71
2022/08/29 01:26:36;;;;;;;1.30;1.10;;;21.30;52.70;;;;;;5050900;28;20792;-70
2022/08/29 01:29:02;;;;;;;1.30;1.10;;;21.10;54.50;;;;;;5059280;28;20414;-70
2022/08/29 01:31:40;;;;;;;1.30;1.20;;;21.40;52.50;;;;;;5050995;28;20204;-70
2022/08/29 01:34:06;;;;;;;1.30;1.30;;;21.30;53.20;;;;;;5059995;28;20415;-70
2022/08/29 01:36:43;;;;;;;1.30;1.20;;;21.30;52.20;;;;;;5045542;28;20425;-70
2022/08/29 01:39:09;;;;;;;1.30;1.20;;;21.30;53.60;;;;;;5063616;28;20508;-70
2022/08/29 01:41:34;;;;;;;1.30;1.13;;;21.30;54.10;;;;;;5046205;28;20424;-72
2022/08/29 01:44:07;;;;;;;1.30;1.10;;;21.30;52.70;;;;;;5045745;28;20179;-70
2022/08/29 01:46:33;;;;;;;1.30;1.20;;;21.20;52.50;;;;;;5053853;28;20658;-70
2022/08/29 01:49:01;;;;;;;1.30;1.20;;;21.10;53.00;;;;;;5057582;28;20526;-70
2022/08/29 01:51:27;;;;;;;1.30;1.10;;;21.10;53.80;;;;;;5054063;28;20450;-70
2022/08/29 01:53:52;;;;;;;1.30;1.20;;;21.00;55.00;;;;;;5043645;28;20426;-70
2022/08/29 01:56:25;;;;;;;1.30;1.20;;;20.90;54.80;;;;;;5048140;28;20524;-70
2022/08/29 01:58:52;;;;;;;1.30;1.10;;;20.90;53.50;;;;;;5055332;28;20562;-70
2022/08/29 02:01:22;;;;;;;1.30;1.20;;;20.90;53.40;;;;;;5057079;28;20469;-70
2022/08/29 02:03:48;;;;;;;1.30;1.10;;;21.10;52.90;;;;;;5064749;28;20416;-71
2022/08/29 02:06:14;;;;;;;1.30;1.10;;;20.90;53.60;;;;;;5054457;28;20438;-71
2022/08/29 02:08:42;;;;;;;1.30;1.10;;;20.90;54.60;;;;;;5042552;28;20435;-70
2022/08/29 02:11:09;;;;;;;1.30;1.13;;;20.80;55.00;;;;;;5058776;28;20190;-70
2022/08/29 02:13:47;;;;;;;1.30;1.10;;;20.80;55.00;;;;;;5059657;28;20417;-71
2022/08/29 02:16:14;;;;;;;1.30;1.20;;;20.80;54.10;;;;;;5066024;28;20448;-70
2022/08/29 02:18:43;;;;;;;1.30;1.30;;;20.90;53.40;;;;;;5060453;28;20431;-70
2022/08/29 02:21:14;;;;;;;1.30;1.20;;;20.90;53.40;;;;;;5066168;28;20429;-70
2022/08/29 02:23:41;;;;;;;1.30;1.10;;;21.00;52.70;;;;;;5045280;28;20960;-70
2022/08/29 02:26:06;;;;;;;1.30;1.20;;;20.90;53.50;;;;;;5059908;28;20493;-71
2022/08/29 02:28:34;;;;;;;1.30;1.20;;;21.20;52.10;;;;;;5065507;28;20843;-70
2022/08/29 02:31:01;;;;;;;1.27;1.20;;;21.00;53.20;;;;;;5052295;28;20187;-70
2022/08/29 02:33:27;;;;;;;1.30;1.20;;;20.90;52.50;;;;;;5056924;28;20459;-70
2022/08/29 02:35:53;;;;;;;1.30;1.13;;;20.90;52.60;;;;;;5055605;28;20539;-70
2022/08/29 02:38:20;;;;;;;1.30;1.20;;;20.80;53.60;;;;;;5066822;28;20429;-70
2022/08/29 02:40:49;;;;;;;1.30;1.07;;;20.70;52.90;;;;;;5053216;28;20850;-70
2022/08/29 02:43:16;;;;;;;1.30;1.10;;;20.70;53.80;;;;;;5052836;28;20907;-70
2022/08/29 02:45:42;;;;;;;1.30;1.20;;;20.70;53.10;;;;;;5064231;28;21027;-70
2022/08/29 02:48:10;;;;;;;1.30;1.20;;;20.60;53.30;;;;;;5067151;28;20501;-70
2022/08/29 02:50:39;;;;;;;1.30;1.20;;;20.50;54.60;;;;;;5059136;28;20419;-70
2022/08/29 02:53:05;;;;;;;1.30;1.10;;;20.50;54.60;;;;;;5052151;28;20517;-70
2022/08/29 02:55:31;;;;;;;1.30;1.20;;;20.60;55.00;;;;;;5051981;28;20454;-70
2022/08/29 02:57:57;;;;;;;1.30;1.10;;;20.50;54.20;;;;;;5061878;28;20438;-70
2022/08/29 03:00:25;;;;;;;1.30;1.17;;;20.40;55.10;;;;;;5069884;28;20709;-70
2022/08/29 03:02:51;;;;;;;1.30;1.30;;;20.40;54.40;;;;;;5064272;28;20438;-70
2022/08/29 03:05:21;;;;;;;1.30;1.20;;;20.50;53.60;;;;;;5059444;28;20482;-70
2022/08/29 03:07:46;;;;;;;1.30;1.10;;;20.60;53.20;;;;;;5058734;28;20458;-70
2022/08/29 03:10:13;;;;;;;1.23;1.10;;;20.60;53.20;;;;;;5069896;28;20473;-70
2022/08/29 03:12:39;;;;;;;1.30;1.20;;;20.60;55.10;;;;;;5044075;28;20259;-70
2022/08/29 03:15:07;;;;;;;1.30;1.20;;;20.50;54.20;;;;;;5043866;28;20436;-70
2022/08/29 03:17:33;;;;;;;1.30;1.20;;;20.50;53.30;;;;;;5044460;28;20815;-69
2022/08/29 03:19:59;;;;;;;1.30;1.20;;;20.60;53.20;;;;;;5052735;28;20802;-70
2022/08/29 03:22:26;;;;;;;1.30;1.20;;;20.50;53.90;;;;;;5051088;28;20434;-70
2022/08/29 03:24:52;;;;;;;1.30;1.20;;;20.50;53.50;;;;;;5051850;28;20264;-70
2022/08/29 03:27:18;;;;;;;1.30;1.20;;;20.70;52.80;;;;;;5045293;28;20435;-70
2022/08/29 03:29:44;;;;;;;1.20;1.10;;;20.60;52.40;;;;;;5047896;28;20597;-70
2022/08/29 03:32:10;;;;;;;1.30;1.20;;;20.50;52.10;;;;;;5049313;28;20997;-69
2022/08/29 03:34:36;;;;;;;1.30;1.20;;;20.60;53.20;;;;;;5052256;28;20443;-70
2022/08/29 03:37:02;;;;;;;1.30;1.00;;;20.40;53.20;;;;;;5051225;28;20446;-70
2022/08/29 03:39:28;;;;;;;1.30;1.20;;;20.40;52.80;;;;;;5051843;28;20437;-70
2022/08/29 03:41:54;;;;;;;1.30;1.20;;;20.40;52.70;;;;;;5051640;28;20464;-70
2022/08/29 03:44:20;;;;;;;1.20;1.20;;;20.50;52.50;;;;;;5053147;28;20679;-69
2022/08/29 03:46:46;;;;;;;1.20;1.10;;;20.50;52.80;;;;;;5080503;22;20482;-74
2022/08/29 03:49:11;;;;;;;1.20;1.20;;;20.40;53.30;;;;;;5048459;28;20783;-74
2022/08/29 03:51:38;;;;;;;1.30;1.17;;;20.40;53.10;;;;;;5050633;28;20276;-74
2022/08/29 03:54:04;;;;;;;1.27;1.10;;;20.20;53.70;;;;;;5048018;28;20175;-74
2022/08/29 03:56:30;;;;;;;1.30;1.00;;;20.10;55.20;;;;;;5050297;28;20464;-74
2022/08/29 03:58:57;;;;;;;1.27;1.10;;;20.20;55.60;;;;;;5051702;28;20778;-74
2022/08/29 04:01:25;;;;;;;1.30;1.10;;;20.20;53.70;;;;;;5043058;28;20177;-74
2022/08/29 04:03:52;;;;;;;1.30;1.10;;;20.20;53.30;;;;;;5049609;28;21156;-75
2022/08/29 04:06:18;;;;;;;1.30;1.10;;;20.30;53.00;;;;;;5048552;28;20484;-74
2022/08/29 04:08:47;;;;;;;1.30;1.00;;;20.20;53.30;;;;;;5049115;28;20423;-74
2022/08/29 04:11:15;;;;;;;1.30;1.20;;;20.20;54.30;;;;;;5051213;28;20436;-74
2022/08/29 04:13:40;;;;;;;1.30;1.20;;;20.20;52.90;;;;;;5043070;28;20470;-75
2022/08/29 04:16:21;;;;;;;1.30;1.20;;;20.00;53.10;;;;;;5049780;28;20453;-74
2022/08/29 04:18:47;;;;;;;1.30;1.10;;;20.10;53.30;;;;;;5043737;28;20180;-74
2022/08/29 04:21:14;;;;;;;1.30;1.20;;;20.10;54.00;;;;;;5051235;28;20416;-73
2022/08/29 04:23:40;;;;;;;1.30;1.03;;;20.10;53.60;;;;;;5041371;28;20443;-74
2022/08/29 04:26:13;;;;;;;1.30;1.20;;;20.20;52.90;;;;;;5050119;28;20469;-73
2022/08/29 04:28:39;;;;;;;1.30;1.20;;;20.20;53.40;;;;;;5046824;28;20217;-74
2022/08/29 04:31:10;;;;;;;1.30;1.10;;;20.00;54.50;;;;;;5050917;28;21052;-74
2022/08/29 04:33:36;;;;;;;1.30;1.17;;;20.10;54.00;;;;;;5046466;28;20570;-74
2022/08/29 04:36:05;;;;;;;1.30;1.20;;;20.00;54.20;;;;;;5045851;28;20443;-74
2022/08/29 04:38:31;;;;;;;1.30;1.17;;;20.00;53.50;;;;;;5044811;28;20181;-74
2022/08/29 04:40:57;;;;;;;1.30;1.20;;;20.00;52.80;;;;;;5048795;28;20437;-74
2022/08/29 04:43:23;;;;;;;1.30;1.10;;;19.90;54.10;;;;;;5044973;28;20438;-74
2022/08/29 04:45:55;;;;;;;1.30;1.10;;;19.90;53.00;;;;;;5039790;28;20216;-75
2022/08/29 04:48:21;;;;;;;1.30;1.20;;;19.90;54.00;;;;;;5050591;28;20204;-74
2022/08/29 04:50:56;;;;;;;1.30;1.30;;;19.90;53.70;;;;;;5048265;28;20443;-75
2022/08/29 04:53:24;;;;;;;1.30;1.20;;;19.90;54.50;;;;;;5040948;28;20208;-74
2022/08/29 04:56:05;;;;;;;1.30;1.20;;;20.10;53.20;;;;;;5041408;28;20457;-74
2022/08/29 04:58:32;;;;;;;1.30;1.13;;;19.90;53.50;;;;;;5043842;28;20420;-74
2022/08/29 05:00:58;;;;;;;1.30;1.20;;;19.90;53.90;;;;;;5042152;28;20521;-73
2022/08/29 05:03:24;;;;;;;1.30;1.10;;;20.00;52.90;;;;;;5050349;28;20551;-73
2022/08/29 05:05:57;;;;;;;1.30;1.20;;;19.90;53.70;;;;;;5044144;28;20618;-74
2022/08/29 05:08:24;;;;;;;1.30;1.20;;;19.90;53.40;;;;;;5050522;28;20186;-74
2022/08/29 05:10:49;;;;;;;1.30;1.20;;;19.90;53.20;;;;;;5052165;28;20431;-74
2022/08/29 05:13:15;;;;;;;1.30;1.10;;;19.90;53.70;;;;;;5047487;28;20466;-75
2022/08/29 05:15:41;;;;;;;1.30;1.20;;;19.80;54.80;;;;;;5047349;28;20683;-73
2022/08/29 05:18:06;;;;;;;1.30;1.10;;;19.90;55.20;;;;;;5050222;28;20184;-74
2022/08/29 05:20:32;;;;;;;1.30;1.10;;;19.80;56.00;;;;;;5046538;28;20667;-73
2022/08/29 05:22:58;;;;;;;1.30;1.10;;;19.80;55.40;;;;;;5045999;28;20184;-74
2022/08/29 05:25:24;;;;;;;1.30;1.17;;;20.00;55.30;;;;;;5049700;28;20825;-74
2022/08/29 05:27:50;;;;;;;1.30;1.10;;;20.10;55.40;;;;;;5046303;28;20443;-74
2022/08/29 05:30:17;;;;;;;1.30;1.10;;;20.10;55.80;;;;;;5050899;28;20188;-74
2022/08/29 05:32:42;;;;;;;1.30;1.10;;;20.10;55.70;;;;;;5044078;28;20927;-73
2022/08/29 05:35:08;;;;;;;1.30;1.20;;;20.10;55.10;;;;;;5047046;28;20474;-74
2022/08/29 05:37:34;;;;;;;1.30;1.20;;;20.00;55.40;;;;;;5046349;28;20660;-74
2022/08/29 05:40:00;;;;;;;1.30;1.10;;;20.10;55.50;;;;;;5045763;28;20270;-74
2022/08/29 05:42:26;;;;;;;1.27;1.10;;;20.20;54.40;;;;;;5048022;28;20182;-74
2022/08/29 05:44:52;;;;;;;1.30;1.27;;;20.20;55.20;;;;;;5048184;28;20470;-73
2022/08/29 05:47:19;;;;;;;1.27;1.10;;;20.40;55.00;;;;;;5045463;28;20525;-73
2022/08/29 05:49:46;;;;;;;1.30;1.20;;;20.40;54.60;;;;;;5049185;28;20437;-74
2022/08/29 05:52:14;;;;;;;1.30;1.20;;;20.40;54.60;;;;;;5045098;28;20453;-72
2022/08/29 05:54:41;;;;;;;1.30;1.17;;;20.20;56.00;;;;;;5044181;28;20856;-71
2022/08/29 05:57:09;;;;;;;1.30;1.20;;;20.20;55.90;;;;;;5050607;28;20977;-71
2022/08/29 05:59:35;;;;;;;1.30;1.10;;;20.30;56.80;;;;;;5053229;28;20439;-74
2022/08/29 06:02:01;;;;;;;1.23;1.10;;;20.40;56.50;;;;;;5051365;28;20648;-72
2022/08/29 06:04:27;;;;;;;1.27;1.10;;;20.50;55.90;;;;;;5050287;28;20440;-72
2022/08/29 06:06:53;;;;;;;1.20;1.10;;;20.60;55.50;;;;;;5045364;28;20455;-72
2022/08/29 06:09:18;;;;;;;1.30;1.10;;;20.80;55.10;;;;;;5045460;28;20495;-72
2022/08/29 06:11:56;;;;;;;1.20;1.10;;;20.90;53.90;;;;;;5052647;28;20213;-72
2022/08/29 06:14:22;;;;;;;1.20;1.10;;;20.90;55.10;;;;;;5046672;28;20600;-72
2022/08/29 06:16:47;;;;;;;1.30;1.23;;;21.00;55.00;;;;;;5049153;28;20532;-72
2022/08/29 06:19:13;;;;;;;1.30;1.10;;;20.90;53.70;;;;;;5045887;28;20553;-72
2022/08/29 06:21:39;;;;;;;1.23;1.10;;;20.70;55.10;;;;;;5049568;28;20201;-73
2022/08/29 06:24:05;;;;;;;1.30;1.10;;;20.40;55.90;;;;;;5049516;28;20214;-72
2022/08/29 06:26:31;;;;;;;1.20;1.10;;;20.00;59.70;;;;;;5051723;28;20453;-74
2022/08/29 06:28:57;;;;;;;1.23;1.20;;;20.40;59.10;;;;;;5051368;28;20874;-73
2022/08/29 06:31:27;;;;;;;1.30;1.20;;;20.70;57.40;;;;;;5051393;28;20648;-72
2022/08/29 06:33:58;;;;;;;1.30;1.10;;;21.00;55.60;;;;;;5048759;28;20273;-73
2022/08/29 06:36:25;;;;;;;1.23;1.20;;;20.90;54.30;;;;;;5049332;28;20524;-72
2022/08/29 06:38:54;;;;;;;1.20;1.20;;;20.80;55.40;;;;;;5051309;28;20461;-72
2022/08/29 06:41:20;;;;;;;1.20;1.20;;;21.10;55.40;;;;;;5049429;28;20928;-72
2022/08/29 06:43:45;;;;;;;1.20;1.10;;;21.30;53.10;;;;;;5045987;28;20441;-72
2022/08/29 06:46:22;;;;;;;1.20;1.20;;;21.50;51.90;;;;;;5045808;28;20249;-72
2022/08/29 06:48:48;;;;;;;1.20;1.13;;;21.10;53.30;;;;;;5049875;28;20172;-73
2022/08/29 06:51:14;;;;;;;1.30;1.20;;;21.00;54.30;;;;;;5049155;28;20432;-72
2022/08/29 06:53:39;;;;;;;1.30;1.17;;;21.30;54.80;;;;;;5046134;28;20436;-72
2022/08/29 06:56:06;;;;;;;1.30;1.20;;;21.20;52.60;;;;;;5048068;28;20630;-72
2022/08/29 06:58:33;;;;;;;1.30;1.27;;;20.70;56.70;;;;;;5048869;28;20175;-73
2022/08/29 07:01:05;;;;;;;1.30;1.20;;;21.00;57.00;;;;;;5045515;28;20504;-72
2022/08/29 07:03:31;;;;;;;1.30;1.10;;;21.40;54.20;;;;;;5046615;28;20807;-72
2022/08/29 07:05:56;;;;;;;1.30;1.20;;;21.40;51.90;;;;;;5043695;28;20470;-72
2022/08/29 07:08:22;;;;;;;1.30;1.20;;;21.10;54.30;;;;;;5047532;28;20282;-72
2022/08/29 07:10:48;;;;;;;1.20;1.10;;;21.20;56.70;;;;;;5048981;28;20187;-72
2022/08/29 07:13:13;;;;;;;1.27;1.13;;;21.70;55.10;;;;;;5047080;28;20492;-72
2022/08/29 07:15:39;;;;;;;1.30;1.20;;;22.00;52.60;;;;;;5048376;28;20232;-73
2022/08/29 07:18:05;;;;;;;1.20;1.10;;;22.10;50.30;;;;;;5047479;28;20276;-72
2022/08/29 07:20:30;;;;;;;1.27;1.20;;;21.70;52.40;;;;;;5042045;28;20177;-72
2022/08/29 07:22:56;;;;;;;1.23;1.10;;;22.00;51.70;;;;;;5040595;28;20196;-72
2022/08/29 07:25:22;;;;;;;1.30;1.20;;;22.30;50.10;;;;;;5044902;28;20678;-72
2022/08/29 07:27:48;;;;;;;1.20;1.10;;;21.80;50.70;;;;;;5047193;28;20239;-72
2022/08/29 07:30:15;;;;;;;1.20;1.20;;;21.20;54.70;;;;;;5046727;28;20444;-73
2022/08/29 07:32:44;;;;;;;1.30;1.30;;;21.60;54.30;;;;;;5045392;28;20526;-72
2022/08/29 07:35:12;;;;;;;1.30;1.20;;;21.90;51.70;;;;;;5045917;28;20431;-72
2022/08/29 07:37:38;;;;;;;1.20;1.10;;;22.00;50.10;;;;;;5044097;28;20460;-73
2022/08/29 07:40:04;;;;;;;1.20;1.20;;;21.50;52.20;;;;;;5045902;28;20871;-73
2022/08/29 07:42:31;;;;;;;1.20;1.10;;;21.50;53.80;;;;;;5044194;28;20440;-73
2022/08/29 07:44:57;;;;;;;1.20;1.10;;;22.00;53.20;;;;;;5047573;28;20889;-74
2022/08/29 07:47:25;;;;;;;1.20;1.20;;;22.50;48.80;;;;;;5049203;28;20484;-73
2022/08/29 07:49:51;;;;;;;1.20;1.10;;;22.80;47.40;;;;;;5051712;28;20197;-73
2022/08/29 07:52:16;;;;;;;1.20;1.20;;;23.10;44.80;;;;;;5043548;28;20452;-73
2022/08/29 07:54:42;;;;;;;1.27;1.20;;;22.80;46.50;;;;;;5051092;28;21318;-73
2022/08/29 07:57:07;;;;;;;1.27;1.20;;;21.90;49.30;;;;;;5050445;28;20199;-73
2022/08/29 07:59:33;;;;;;;1.23;1.20;;;21.40;52.60;;;;;;5042783;28;20709;-73
2022/08/29 08:01:59;;;;;;;1.30;1.20;;;21.60;51.80;;;;;;5051069;28;20185;-73
2022/08/29 08:04:24;;;;;;;1.30;1.23;;;21.80;52.00;;;;;;5043467;28;20192;-73
2022/08/29 08:06:50;;;;;;;1.20;1.10;;;22.10;50.00;;;;;;5049056;28;20215;-73
2022/08/29 08:09:16;;;;;;;1.27;1.20;;;22.10;50.00;;;;;;5051423;28;20189;-74
2022/08/29 08:11:42;;;;;;;1.27;1.20;;;22.10;51.00;;;;;;5042818;28;20702;-73
2022/08/29 08:14:08;;;;;;;1.30;1.20;;;22.00;52.20;;;;;;5041726;28;20181;-73
2022/08/29 08:16:34;;;;;;;1.20;1.10;;;22.00;51.70;;;;;;5040678;28;21223;-72
2022/08/29 08:19:00;;;;;;;1.20;1.10;;;22.40;51.20;;;;;;5051213;28;21079;-73
2022/08/29 08:21:26;;;;;;;1.23;1.20;;;22.30;51.20;;;;;;5041690;28;20511;-73
2022/08/29 08:23:52;;;;;;;1.23;1.17;;;22.30;51.70;;;;;;5050299;28;20183;-73
2022/08/29 08:26:18;;;;;;;1.30;1.13;;;22.20;52.00;;;;;;5048549;28;20568;-73
2022/08/29 08:28:45;;;;;;;1.30;1.20;;;22.40;52.80;;;;;;5046193;28;21006;-73
2022/08/29 08:31:12;;;;;;;1.30;1.20;;;22.80;50.30;;;;;;5047512;28;20194;-73
2022/08/29 08:33:38;;;;;;;1.30;1.20;;;22.50;49.70;;;;;;5050593;28;20893;-73
2022/08/29 08:36:16;;;;;;;1.27;1.20;;;22.90;48.70;;;;;;5044117;28;20489;-73
2022/08/29 08:38:42;;;;;;;1.30;1.20;;;23.20;48.80;;;;;;5049124;28;20442;-73
2022/08/29 08:41:19;;;;;;;1.27;1.20;;;23.70;45.40;;;;;;5048151;28;20506;-71
2022/08/29 08:44:06;;;;;;;1.30;1.20;;;23.70;44.30;;;;;;5044884;28;20426;-71
2022/08/29 08:46:42;;;;;;;1.20;1.13;;;23.60;45.00;;;;;;5043505;28;20530;-71
2022/08/29 08:49:15;;;;;;;1.20;1.10;;;23.60;45.80;;;;;;5047239;28;20446;-71
2022/08/29 08:51:46;;;;;;;1.30;1.17;;;23.70;46.40;;;;;;5050095;28;20528;-70
2022/08/29 08:54:23;;;;;;;1.20;1.10;;;23.80;45.20;;;;;;5048468;28;20441;-71
2022/08/29 08:57:06;;;;;;;1.30;1.27;;;24.10;44.90;;;;;;5048360;28;20545;-73
2022/08/29 08:59:41;;;;;;;1.20;1.20;;;23.70;45.60;;;;;;5042931;28;20443;-71
2022/08/29 09:02:29;;;;;;;1.30;1.10;;;24.00;46.20;;;;;;5049437;28;20436;-73
2022/08/29 09:05:31;;;;;;;1.23;1.17;;;24.40;43.90;;;;;;5049752;28;20426;-72
2022/08/29 09:08:18;;;;;;;1.20;1.10;;;24.70;43.60;;;;;;5047363;28;20440;-71
2022/08/29 09:10:56;;;;;;;1.20;1.20;;;24.40;41.00;;;;;;5043182;28;20564;-72
2022/08/29 09:13:35;;;;;;;1.23;1.20;;;24.70;41.80;;;;;;5048770;28;20540;-72
2022/08/29 09:16:18;;;;;;;1.23;1.20;;;25.10;42.20;;;;;;5043267;28;20447;-72
2022/08/29 09:18:43;;;;;;;1.20;1.20;;;25.60;40.70;;;;;;5049763;28;20421;-71
2022/08/29 09:21:20;;;;;;;1.27;1.10;;;25.90;40.20;;;;;;5048080;28;20444;-72
2022/08/29 09:23:53;;;;;;;1.20;1.10;;;25.90;37.90;;;;;;5045064;28;20186;-71
2022/08/29 09:26:21;;;;;;;1.20;1.10;;;26.10;38.60;;;;;;5050234;28;20818;-71
2022/08/29 09:28:48;;;;;;;1.30;1.20;;;26.30;38.50;;;;;;5048624;28;20495;-72
2022/08/29 09:31:24;;;;;;;1.20;1.20;;;25.90;39.00;;;;;;5042511;28;20476;-71
2022/08/29 09:34:02;;;;;;;1.20;1.10;;;26.10;37.40;;;;;;5048964;28;20803;-71
2022/08/29 09:36:44;;;;;;;1.20;1.10;;;26.00;38.60;;;;;;5037183;28;20548;-72
2022/08/29 09:39:13;;;;;;;1.30;1.20;;;26.40;37.60;;;;;;5045207;28;20426;-72
2022/08/29 09:41:39;;;;;;;1.20;1.10;;;26.40;38.00;;;;;;5048083;28;20426;-73
2022/08/29 09:44:08;;;;;;;1.27;1.20;;;26.50;38.60;;;;;;5045485;28;20538;-73
2022/08/29 09:46:33;;;;;;;1.20;1.10;;;26.70;36.30;;;;;;5049375;28;20457;-72
2022/08/29 09:48:59;;;;;;;1.30;1.13;;;26.90;36.90;;;;;;5050440;28;20512;-72
2022/08/29 09:51:32;;;;;;;1.20;1.10;;;27.00;36.00;;;;;;5049801;28;20179;-73
2022/08/29 09:54:12;;;;;;;1.30;1.20;;;26.90;34.60;;;;;;5048095;28;20470;-71
2022/08/29 09:57:14;;;;;;;1.20;1.10;;;26.80;33.90;;;;;;5050240;28;20464;-71
2022/08/29 09:59:43;;;;;;;1.20;1.10;;;26.90;35.30;;;;;;5030205;28;20523;-71
2022/08/29 10:02:18;;;;;;;1.20;1.17;;;27.30;34.80;;;;;;5051970;28;20644;-71
2022/08/29 10:04:51;;;;;;;1.20;1.10;;;26.70;33.70;;;;;;5045339;28;20512;-72
2022/08/29 10:07:32;;;;;;;1.30;1.20;;;26.70;34.40;;;;;;5049935;28;20465;-72
2022/08/29 10:10:15;;;;;;;1.20;1.10;;;26.90;33.40;;;;;;5050552;28;20441;-72
2022/08/29 10:12:56;;;;;;;1.20;1.10;;;26.20;33.20;;;;;;5047517;28;20461;-72
2022/08/29 10:15:33;;;;;;;1.20;1.20;;;26.20;34.50;;;;;;5051151;28;20860;-71
2022/08/29 10:18:19;;;;;;;1.20;1.10;;;26.60;35.40;;;;;;5051001;28;20437;-71
2022/08/29 10:20:58;;;;;;;1.20;1.10;;;27.40;35.20;;;;;;5051129;28;20841;-72
2022/08/29 10:23:36;;;;;;;1.30;1.10;;;27.60;31.90;;;;;;5050427;28;20436;-71
2022/08/29 10:26:08;;;;;;;1.30;1.20;;;26.80;33.10;;;;;;5051449;28;20480;-71
2022/08/29 10:28:55;;;;;;;1.23;1.10;;;27.20;33.40;;;;;;5051965;28;20426;-73
2022/08/29 10:31:29;;;;;;;1.30;1.10;;;27.70;32.00;;;;;;5047951;28;20441;-71
2022/08/29 10:34:29;;;;;;;1.30;1.20;;;28.20;30.10;;;;;;5051759;28;20461;-72
2022/08/29 10:37:03;;;;;;;1.20;1.10;;;28.90;32.10;;;;;;4992464;28;20453;-72
2022/08/29 10:39:52;;;;;;;1.20;1.03;;;29.10;29.20;;;;;;5048661;28;20790;-72
2022/08/29 10:42:21;;;;;;;1.20;1.10;;;29.20;28.60;;;;;;5047391;28;20430;-71
2022/08/29 10:44:49;;;;;;;1.20;1.00;;;29.30;29.70;;;;;;5050920;28;20433;-72
2022/08/29 10:47:31;;;;;;;1.20;1.10;;;29.40;27.30;;;;;;5044856;28;20469;-72
2022/08/29 10:50:04;;;;;;;1.20;1.10;;;29.60;27.30;;;;;;5045342;28;20450;-72
2022/08/29 10:52:47;;;;;;;1.23;1.10;;;29.20;26.10;;;;;;5046296;28;20945;-71
2022/08/29 10:55:31;;;;;;;1.20;1.10;;;28.10;30.00;;;;;;5052471;28;20418;-71
2022/08/29 10:58:08;;;;;;;1.20;1.10;;;28.90;28.20;;;;;;5052466;28;20429;-72
2022/08/29 11:00:45;;;;;;;1.20;1.03;;;29.30;28.00;;;;;;5046305;28;20446;-72
2022/08/29 11:03:42;;;;;;;1.20;1.00;;;30.00;26.80;;;;;;5045812;28;20422;-72
2022/08/29 11:06:16;;;;;;;1.20;1.10;;;30.60;27.40;;;;;;5046337;28;20450;-71
2022/08/29 11:08:49;;;;;;;1.20;1.10;;;30.70;26.70;;;;;;5042614;28;20470;-70
2022/08/29 11:11:18;;;;;;;1.20;1.00;;;31.00;24.70;;;;;;5047234;28;20421;-70
2022/08/29 11:13:49;;;;;;;1.20;1.00;;;30.80;25.20;;;;;;5047575;28;20468;-72
2022/08/29 11:16:24;;;;;;;1.20;0.93;;;30.90;24.30;;;;;;5047288;28;20458;-70
2022/08/29 11:18:53;;;;;;;1.20;1.00;;;30.70;25.90;;;;;;5046871;28;20516;-71
2022/08/29 11:21:47;;;;;;;1.20;1.00;;;31.10;25.30;;;;;;5044177;28;20445;-71
2022/08/29 11:24:15;;;;;;;1.20;1.00;;;32.10;24.00;;;;;;5046946;28;20454;-70
2022/08/29 11:26:44;;;;;;;1.20;1.00;;;32.00;21.40;;;;;;5043662;28;20450;-71
2022/08/29 11:29:37;;;;;;;1.20;1.00;;;31.10;25.10;;;;;;5047230;28;20431;-71
2022/08/29 11:32:10;;;;;;;1.20;1.00;;;31.90;22.90;;;;;;5044730;28;20466;-73
2022/08/29 11:34:46;;;;;;;1.20;1.00;;;32.20;23.30;;;;;;5046996;28;20418;-73
2022/08/29 11:37:30;;;;;;;1.20;0.87;;;32.70;23.30;;;;;;5047779;28;20454;-72
2022/08/29 11:40:17;;;;;;;1.20;0.90;;;33.00;22.10;;;;;;5047429;28;20441;-70
2022/08/29 11:42:45;;;;;;;1.20;1.00;;;32.60;21.60;;;;;;5042876;28;20435;-72
2022/08/29 11:45:14;;;;;;;1.20;0.90;;;32.40;23.10;;;;;;5047743;28;20464;-71
2022/08/29 11:48:02;;;;;;;1.20;1.00;;;32.30;22.70;;;;;;5038698;28;20444;-71
2022/08/29 11:50:36;;;;;;;1.20;0.90;;;33.00;21.00;;;;;;5043828;28;20440;-72
2022/08/29 11:53:10;;;;;;;1.20;0.90;;;33.70;20.60;;;;;;5041347;28;20458;-72
2022/08/29 11:55:37;;;;;;;1.20;0.90;;;34.30;19.50;;;;;;5048411;28;20510;-71
2022/08/29 11:58:09;;;;;;;1.20;0.90;;;35.20;18.90;;;;;;5045417;28;20425;-72
2022/08/29 12:00:40;;;;;;;1.20;0.90;;;36.10;16.10;;;;;;5043037;28;20426;-72
2022/08/29 12:03:31;;;;;;;1.20;0.90;;;35.30;17.50;;;;;;5046430;28;20433;-74
2022/08/29 12:06:03;;;;;;;1.20;0.90;;;36.00;16.30;;;;;;5046162;28;20466;-72
2022/08/29 12:08:36;;;;;;;1.20;0.90;;;36.30;16.70;;;;;;5050651;28;20426;-73
2022/08/29 12:11:04;;;;;;;1.20;0.90;;;36.60;16.40;;;;;;5049210;28;21170;-72
2022/08/29 12:13:55;;;;;;;1.20;0.90;;;37.00;15.30;;;;;;5044964;28;20588;-72
2022/08/29 12:16:42;;;;;;;1.20;0.90;;;35.70;16.00;;;;;;5034083;28;20550;-72
2022/08/29 12:19:08;;;;;;;1.20;0.80;;;35.00;17.50;;;;;;5043952;28;20516;-72
2022/08/29 12:21:47;;;;;;;1.20;0.80;;;35.10;17.70;;;;;;5044087;28;20951;-73
2022/08/29 12:24:41;;;;;;;1.20;0.90;;;33.60;17.90;;;;;;5043527;28;20180;-72
2022/08/29 12:27:54;;;;;;;1.20;0.90;;;33.90;18.30;;;;;;5040776;28;20449;-72
2022/08/29 12:30:21;;;;;;;1.20;0.90;;;33.90;17.60;;;;;;4984010;28;20958;-71
2022/08/29 12:33:01;;;;;;;1.20;0.90;;;34.30;18.10;;;;;;5036618;28;20458;-72
2022/08/29 12:36:01;;;;;;;1.20;0.90;;;34.50;18.30;;;;;;5037364;28;20473;-72
2022/08/29 12:38:48;;;;;;;1.20;0.90;;;35.10;16.80;;;;;;5047335;28;20433;-71
2022/08/29 12:41:41;;;;;;;1.20;1.00;;;34.70;18.20;;;;;;5045870;28;20429;-72
2022/08/29 12:44:12;;;;;;;1.20;0.90;;;34.10;19.10;;;;;;5045273;28;20465;-71
2022/08/29 12:46:41;;;;;;;1.20;0.90;;;33.60;19.00;;;;;;5043291;28;20469;-70
2022/08/29 12:49:29;;;;;;;1.20;1.00;;;33.30;18.80;;;;;;5039315;28;20479;-70
2022/08/29 12:52:06;;;;;;;1.20;0.90;;;33.30;18.50;;;;;;5047679;28;20453;-72
2022/08/29 12:54:35;;;;;;;1.20;0.90;;;33.70;19.30;;;;;;5047749;28;20580;-72
2022/08/29 12:57:01;;;;;;;1.20;0.90;;;33.50;19.70;;;;;;5048775;28;20454;-71
2022/08/29 12:59:28;;;;;;;1.20;1.00;;;32.80;19.60;;;;;;5049909;28;20526;-71
2022/08/29 13:01:56;;;;;;;1.20;1.00;;;33.00;20.20;;;;;;5048799;28;20831;-72
2022/08/29 13:04:32;;;;;;;1.20;1.00;;;32.40;19.50;;;;;;5046507;28;20964;-73
2022/08/29 13:07:04;;;;;;;1.20;1.00;;;31.80;21.10;;;;;;5046674;28;20515;-72